Time;durP1;ratioP1;P1;durP2;ratioP2;P2;SDS_P1;SDS_P2;PMS_P1;PMS_P2;Temp;Humidity;BMP_temperature;BMP_pressure;BME280_temperature;BME280_humidity;BME280_pressure;Samples;Min_cycle;Max_cycle;Signal;HPM_P1;HPM_P2
2023/12/24 00:00:15;;;;;;;0.87;0.80;;;8.30;99.90;;;;;;5052434;28;20165;-69
2023/12/24 00:02:40;;;;;;;0.70;0.70;;;8.30;99.90;;;;;;5052397;28;20174;-69
2023/12/24 00:05:06;;;;;;;0.80;0.80;;;8.30;99.90;;;;;;5052580;28;20219;-69
2023/12/24 00:07:32;;;;;;;0.70;0.70;;;8.30;99.90;;;;;;5051934;28;20212;-69
2023/12/24 00:09:57;;;;;;;0.77;0.73;;;8.30;99.90;;;;;;5052276;28;20587;-69
2023/12/24 00:12:22;;;;;;;0.63;0.63;;;8.30;99.90;;;;;;5052292;28;20173;-68
2023/12/24 00:14:48;;;;;;;0.67;0.67;;;8.40;99.90;;;;;;5052183;28;20204;-69
2023/12/24 00:17:14;;;;;;;1.57;0.77;;;8.30;99.90;;;;;;5052171;28;20284;-68
2023/12/24 00:19:39;;;;;;;0.80;0.80;;;8.30;99.90;;;;;;5052204;28;20169;-68
2023/12/24 00:22:05;;;;;;;1.17;0.83;;;8.30;99.90;;;;;;5052157;28;20169;-68
2023/12/24 00:24:31;;;;;;;1.63;0.90;;;8.20;99.90;;;;;;5052109;28;20173;-68
2023/12/24 00:26:57;;;;;;;0.90;0.87;;;8.20;99.90;;;;;;5051652;28;20631;-68
2023/12/24 00:29:22;;;;;;;0.80;0.80;;;8.20;99.90;;;;;;5052110;28;20456;-68
2023/12/24 00:31:48;;;;;;;0.80;0.80;;;8.10;99.90;;;;;;5052188;28;20197;-68
2023/12/24 00:34:13;;;;;;;3.30;0.90;;;8.10;99.90;;;;;;5051964;28;20542;-68
2023/12/24 00:36:39;;;;;;;0.70;0.70;;;8.00;99.90;;;;;;5051747;28;20197;-68
2023/12/24 00:39:04;;;;;;;1.30;0.80;;;8.00;99.90;;;;;;5051850;28;20180;-68
2023/12/24 00:41:30;;;;;;;0.50;0.50;;;8.00;99.90;;;;;;5051885;28;20552;-68
2023/12/24 00:43:56;;;;;;;0.83;0.60;;;8.00;99.90;;;;;;5052076;28;20630;-68
2023/12/24 00:46:21;;;;;;;2.80;0.60;;;8.00;99.90;;;;;;5051577;28;20543;-68
2023/12/24 00:48:47;;;;;;;0.80;0.80;;;8.00;99.90;;;;;;5051703;28;20462;-68
2023/12/24 00:51:12;;;;;;;0.90;0.80;;;7.90;99.90;;;;;;5051918;28;20174;-68
2023/12/24 00:53:38;;;;;;;0.70;0.70;;;7.90;99.90;;;;;;5051558;28;20223;-68
2023/12/24 00:56:04;;;;;;;0.53;0.50;;;7.90;99.90;;;;;;5051692;28;20173;-68
2023/12/24 00:58:30;;;;;;;0.50;0.40;;;7.90;99.90;;;;;;5051460;28;20276;-68
2023/12/24 01:00:55;;;;;;;1.77;0.60;;;7.90;99.90;;;;;;5051668;28;20181;-68
2023/12/24 01:03:21;;;;;;;0.70;0.70;;;7.90;99.90;;;;;;5051696;28;20177;-68
2023/12/24 01:05:46;;;;;;;0.70;0.60;;;7.80;99.90;;;;;;5051718;28;20178;-68
2023/12/24 01:08:13;;;;;;;0.97;0.97;;;7.80;99.90;;;;;;5051463;28;20573;-68
2023/12/24 01:10:38;;;;;;;0.50;0.50;;;7.80;99.90;;;;;;5051612;28;20619;-68
2023/12/24 01:13:04;;;;;;;1.80;1.00;;;7.80;99.90;;;;;;5051825;28;20419;-68
2023/12/24 01:15:29;;;;;;;0.50;0.50;;;7.80;99.90;;;;;;5051710;28;20165;-68
2023/12/24 01:17:56;;;;;;;0.80;0.77;;;7.80;99.90;;;;;;5051251;28;20764;-68
2023/12/24 01:20:21;;;;;;;0.40;0.40;;;7.80;99.90;;;;;;5051558;28;20639;-68
2023/12/24 01:22:47;;;;;;;0.60;0.60;;;7.90;99.90;;;;;;5051428;28;20431;-68
2023/12/24 01:25:13;;;;;;;0.80;0.80;;;7.90;99.90;;;;;;5051494;28;20552;-68
2023/12/24 01:27:38;;;;;;;0.60;0.60;;;7.90;99.90;;;;;;5051084;28;20248;-68
2023/12/24 01:30:05;;;;;;;1.23;0.70;;;7.90;99.90;;;;;;5051452;28;20611;-68
2023/12/24 01:32:31;;;;;;;0.73;0.50;;;7.90;99.90;;;;;;5051583;28;20174;-68
2023/12/24 01:34:57;;;;;;;0.70;0.60;;;8.00;99.90;;;;;;5051399;28;20423;-68
2023/12/24 01:37:23;;;;;;;0.70;0.70;;;8.00;99.90;;;;;;5051019;28;20440;-68
2023/12/24 01:39:48;;;;;;;1.13;0.60;;;8.00;99.90;;;;;;5051363;28;20489;-68
2023/12/24 01:42:14;;;;;;;0.60;0.60;;;8.10;99.90;;;;;;5051412;28;20173;-68
2023/12/24 01:44:40;;;;;;;1.10;0.70;;;8.10;99.90;;;;;;5051384;28;20166;-68
2023/12/24 01:47:07;;;;;;;1.33;0.63;;;8.10;99.90;;;;;;5051128;28;20213;-68
2023/12/24 01:49:32;;;;;;;0.90;0.80;;;8.10;99.90;;;;;;5051532;28;20527;-68
2023/12/24 01:51:58;;;;;;;1.10;0.90;;;8.10;99.90;;;;;;5054590;28;20412;-68
2023/12/24 01:54:25;;;;;;;0.87;0.70;;;8.20;99.90;;;;;;5054892;28;20420;-68
2023/12/24 01:56:50;;;;;;;1.00;0.90;;;8.20;99.90;;;;;;5054560;28;20510;-68
2023/12/24 01:59:17;;;;;;;0.70;0.70;;;8.20;99.90;;;;;;5054927;28;20420;-68
2023/12/24 02:01:43;;;;;;;0.90;0.70;;;8.20;99.90;;;;;;5054737;28;20614;-68
2023/12/24 02:04:09;;;;;;;0.90;0.60;;;8.20;99.90;;;;;;5054607;28;20423;-68
2023/12/24 02:06:36;;;;;;;1.13;0.83;;;8.10;99.90;;;;;;5054266;28;20420;-69
2023/12/24 02:09:01;;;;;;;0.80;0.80;;;8.10;99.90;;;;;;5054508;28;20280;-68
2023/12/24 02:11:27;;;;;;;1.33;0.77;;;8.10;99.90;;;;;;5054574;28;20887;-68
2023/12/24 02:13:52;;;;;;;1.10;1.00;;;8.10;99.90;;;;;;5054753;28;20184;-68
2023/12/24 02:16:24;;;;;;;2.10;0.80;;;8.10;99.90;;;;;;5054417;28;20178;-68
2023/12/24 02:18:50;;;;;;;1.00;0.80;;;8.20;99.90;;;;;;5054403;28;20187;-68
2023/12/24 02:21:15;;;;;;;0.70;0.70;;;8.20;99.90;;;;;;5054359;28;20477;-68
2023/12/24 02:23:41;;;;;;;1.70;0.90;;;8.10;99.90;;;;;;5054277;28;20534;-68
2023/12/24 02:26:19;;;;;;;0.80;0.80;;;8.10;99.90;;;;;;5054323;28;20174;-68
2023/12/24 02:28:49;;;;;;;1.10;0.90;;;8.10;99.90;;;;;;5053960;28;20208;-68
2023/12/24 02:31:18;;;;;;;1.90;1.00;;;8.10;99.90;;;;;;5053976;28;20416;-68
2023/12/24 02:33:46;;;;;;;0.73;0.70;;;8.10;99.90;;;;;;5054310;28;20447;-68
2023/12/24 02:36:13;;;;;;;0.70;0.70;;;8.00;99.90;;;;;;5053935;28;20412;-68
2023/12/24 02:38:40;;;;;;;0.73;0.73;;;8.00;99.90;;;;;;5053724;28;21043;-68
2023/12/24 02:41:05;;;;;;;0.90;0.90;;;8.10;99.90;;;;;;5054056;28;20426;-68
2023/12/24 02:43:31;;;;;;;1.37;0.60;;;8.10;99.90;;;;;;5054134;28;20423;-68
2023/12/24 02:45:59;;;;;;;0.80;0.80;;;8.10;99.90;;;;;;5054107;28;20173;-68
2023/12/24 02:48:25;;;;;;;1.33;0.70;;;8.10;99.90;;;;;;5053499;28;20470;-68
2023/12/24 02:50:51;;;;;;;1.07;0.90;;;8.10;99.90;;;;;;5052410;28;20427;-68
2023/12/24 02:53:17;;;;;;;1.57;0.90;;;8.10;99.90;;;;;;5053492;28;20418;-68
2023/12/24 02:55:42;;;;;;;1.00;0.87;;;8.10;99.90;;;;;;5053615;28;20181;-68
2023/12/24 02:58:08;;;;;;;0.70;0.70;;;8.20;99.90;;;;;;5053172;28;20233;-68
2023/12/24 03:00:33;;;;;;;2.10;1.20;;;8.20;99.90;;;;;;5053657;28;20174;-68
2023/12/24 03:02:59;;;;;;;1.73;0.60;;;8.20;99.90;;;;;;5052325;28;20177;-68
2023/12/24 03:05:24;;;;;;;0.70;0.63;;;8.20;99.90;;;;;;5053532;28;20235;-68
2023/12/24 03:07:50;;;;;;;1.83;1.50;;;8.20;99.90;;;;;;5053051;28;20276;-68
2023/12/24 03:10:15;;;;;;;0.80;0.80;;;8.20;99.90;;;;;;5053433;28;20169;-68
2023/12/24 03:12:41;;;;;;;0.80;0.80;;;8.20;99.90;;;;;;5053523;28;20173;-68
2023/12/24 03:15:07;;;;;;;0.80;0.80;;;8.20;99.90;;;;;;5053390;28;20254;-68
2023/12/24 03:17:33;;;;;;;1.27;1.03;;;8.30;99.90;;;;;;5052837;28;20213;-68
2023/12/24 03:19:58;;;;;;;1.10;1.00;;;8.20;99.90;;;;;;5053252;28;20478;-68
2023/12/24 03:22:24;;;;;;;1.47;1.40;;;8.20;99.90;;;;;;5053241;28;20527;-68
2023/12/24 03:24:49;;;;;;;0.80;0.80;;;8.20;99.90;;;;;;5053105;28;20197;-68
2023/12/24 03:27:15;;;;;;;0.90;0.90;;;8.20;99.90;;;;;;5052621;28;20280;-68
2023/12/24 03:29:40;;;;;;;0.70;0.70;;;8.30;99.90;;;;;;5053266;28;20184;-68
2023/12/24 03:32:06;;;;;;;0.73;0.73;;;8.30;99.90;;;;;;5053022;28;20174;-68
2023/12/24 03:34:32;;;;;;;0.93;0.93;;;8.30;99.90;;;;;;5053039;28;20169;-68
2023/12/24 03:36:57;;;;;;;1.57;0.80;;;8.30;99.90;;;;;;5052708;28;20190;-68
2023/12/24 03:39:23;;;;;;;1.30;1.10;;;8.20;99.90;;;;;;5052974;28;20170;-68
2023/12/24 03:41:48;;;;;;;0.73;0.73;;;8.20;99.90;;;;;;5052737;28;20169;-68
2023/12/24 03:44:14;;;;;;;0.80;0.80;;;8.30;99.90;;;;;;5052814;28;20202;-68
2023/12/24 03:46:39;;;;;;;0.73;0.73;;;8.30;99.90;;;;;;5052466;28;20193;-68
2023/12/24 03:49:05;;;;;;;1.03;0.80;;;8.30;99.90;;;;;;5052745;28;20201;-68
2023/12/24 03:51:30;;;;;;;1.00;0.90;;;8.20;99.90;;;;;;5052633;28;20177;-68
2023/12/24 03:53:56;;;;;;;0.83;0.80;;;8.20;99.90;;;;;;5052358;28;20174;-68
2023/12/24 03:56:21;;;;;;;1.50;1.03;;;8.30;99.90;;;;;;5052431;28;20548;-68
2023/12/24 03:58:47;;;;;;;1.13;1.03;;;8.30;99.90;;;;;;5052329;28;20181;-68
2023/12/24 04:01:12;;;;;;;1.03;1.03;;;8.20;99.90;;;;;;5052456;28;20186;-68
2023/12/24 04:03:40;;;;;;;1.30;1.20;;;8.20;99.90;;;;;;5052484;28;20177;-68
2023/12/24 04:06:15;;;;;;;1.40;1.07;;;8.20;99.90;;;;;;5052403;28;20170;-68
2023/12/24 04:08:41;;;;;;;1.00;1.00;;;8.20;99.90;;;;;;5052042;28;21041;-68
2023/12/24 04:11:14;;;;;;;1.43;1.33;;;8.20;99.90;;;;;;5050926;28;20416;-68
2023/12/24 04:13:40;;;;;;;1.60;1.27;;;8.20;99.90;;;;;;5051988;28;20180;-68
2023/12/24 04:16:06;;;;;;;1.10;1.00;;;8.10;99.90;;;;;;5052421;28;20802;-68
2023/12/24 04:18:32;;;;;;;1.30;1.20;;;8.10;99.90;;;;;;5051776;28;20702;-68
2023/12/24 04:20:57;;;;;;;1.07;0.87;;;8.10;99.90;;;;;;5052255;28;20459;-68
2023/12/24 04:23:23;;;;;;;2.10;0.90;;;8.20;99.90;;;;;;5052264;28;20181;-68
2023/12/24 04:25:49;;;;;;;1.17;1.00;;;8.20;99.90;;;;;;5052216;28;20189;-68
2023/12/24 04:28:15;;;;;;;1.40;1.30;;;8.20;99.90;;;;;;5051715;28;20551;-68
2023/12/24 04:30:40;;;;;;;1.30;1.00;;;8.20;99.90;;;;;;5052044;28;20419;-68
2023/12/24 04:33:06;;;;;;;2.40;2.20;;;8.30;99.90;;;;;;5051969;28;20165;-68
2023/12/24 04:35:31;;;;;;;1.23;1.13;;;8.30;99.90;;;;;;5051898;28;20162;-68
2023/12/24 04:37:59;;;;;;;1.47;0.80;;;8.30;99.90;;;;;;5051775;28;20190;-68
2023/12/24 04:40:24;;;;;;;1.70;1.60;;;8.30;99.90;;;;;;5051871;28;20162;-68
2023/12/24 04:42:50;;;;;;;0.87;0.87;;;8.30;99.90;;;;;;5051986;28;20430;-68
2023/12/24 04:45:15;;;;;;;1.27;1.17;;;8.30;99.90;;;;;;5051849;28;20192;-68
2023/12/24 04:47:41;;;;;;;1.47;1.13;;;8.30;99.90;;;;;;5051378;28;20245;-69
2023/12/24 04:50:07;;;;;;;1.20;1.10;;;8.20;99.90;;;;;;5051784;28;20185;-68
2023/12/24 04:52:35;;;;;;;1.40;1.30;;;8.30;99.90;;;;;;5051286;28;20165;-68
2023/12/24 04:55:05;;;;;;;0.90;0.90;;;8.20;99.90;;;;;;5051862;28;20846;-68
2023/12/24 04:57:31;;;;;;;1.40;1.00;;;8.30;99.90;;;;;;5051597;28;20443;-68
2023/12/24 04:59:56;;;;;;;1.53;1.13;;;8.20;99.90;;;;;;5051787;28;20470;-68
2023/12/24 05:02:22;;;;;;;1.20;0.87;;;8.20;99.90;;;;;;5051907;28;20427;-68
2023/12/24 05:04:49;;;;;;;2.10;1.20;;;8.20;99.90;;;;;;5051897;28;20174;-68
2023/12/24 05:07:14;;;;;;;0.80;0.80;;;8.20;99.90;;;;;;5051313;28;20216;-68
2023/12/24 05:09:41;;;;;;;1.53;1.10;;;8.10;99.90;;;;;;5051969;28;20823;-68
2023/12/24 05:12:07;;;;;;;1.20;1.10;;;8.10;99.90;;;;;;5051774;28;20166;-68
2023/12/24 05:14:34;;;;;;;1.10;0.60;;;8.10;99.90;;;;;;5051679;28;20435;-68
2023/12/24 05:16:59;;;;;;;0.97;0.60;;;8.10;99.90;;;;;;5051160;28;20448;-68
2023/12/24 05:19:25;;;;;;;1.00;1.00;;;8.10;99.90;;;;;;5051710;28;20782;-68
2023/12/24 05:21:50;;;;;;;1.13;1.03;;;8.10;99.90;;;;;;5051736;28;20175;-68
2023/12/24 05:24:16;;;;;;;1.13;0.80;;;8.10;99.90;;;;;;5051591;28;20180;-68
2023/12/24 05:26:41;;;;;;;0.70;0.70;;;8.10;99.90;;;;;;5054824;28;20194;-68
2023/12/24 05:29:07;;;;;;;0.70;0.70;;;8.00;99.90;;;;;;5055384;28;20209;-68
2023/12/24 05:31:36;;;;;;;0.70;0.70;;;8.00;99.90;;;;;;5055395;28;20165;-68
2023/12/24 05:34:02;;;;;;;1.23;0.83;;;8.00;99.90;;;;;;5055510;28;20254;-68
2023/12/24 05:36:28;;;;;;;0.90;0.90;;;7.90;99.90;;;;;;5054993;28;20462;-68
2023/12/24 05:38:54;;;;;;;1.43;0.80;;;7.90;99.90;;;;;;5055267;28;20165;-68
2023/12/24 05:41:19;;;;;;;1.43;0.83;;;7.90;99.90;;;;;;5055155;28;20889;-68
2023/12/24 05:43:45;;;;;;;1.20;1.00;;;8.00;99.90;;;;;;5055089;28;20177;-68
2023/12/24 05:46:14;;;;;;;2.17;1.03;;;8.00;99.90;;;;;;5055114;28;20166;-68
2023/12/24 05:48:40;;;;;;;0.70;0.70;;;8.00;99.90;;;;;;5054807;28;20211;-68
2023/12/24 05:51:06;;;;;;;0.60;0.60;;;8.00;99.90;;;;;;5055043;28;20909;-68
2023/12/24 05:53:31;;;;;;;0.67;0.67;;;8.00;99.90;;;;;;5054380;28;20408;-68
2023/12/24 05:55:57;;;;;;;0.80;0.80;;;8.00;99.90;;;;;;5055443;28;20166;-68
2023/12/24 05:58:22;;;;;;;1.97;0.73;;;8.00;99.90;;;;;;5054511;28;20194;-68
2023/12/24 06:00:48;;;;;;;1.37;0.80;;;8.00;99.90;;;;;;5054885;28;20173;-68
2023/12/24 06:03:13;;;;;;;0.97;0.70;;;8.00;99.90;;;;;;5054915;28;20657;-68
2023/12/24 06:05:39;;;;;;;0.80;0.80;;;8.00;99.90;;;;;;5054797;28;20173;-68
2023/12/24 06:08:05;;;;;;;1.13;0.90;;;8.00;99.90;;;;;;5054510;28;20335;-68
2023/12/24 06:10:30;;;;;;;0.50;0.50;;;8.00;99.90;;;;;;5054735;28;20174;-68
2023/12/24 06:12:56;;;;;;;0.70;0.60;;;8.00;99.90;;;;;;5054875;28;20424;-68
2023/12/24 06:15:21;;;;;;;1.53;0.70;;;8.00;99.90;;;;;;5054924;28;20227;-68
2023/12/24 06:17:47;;;;;;;0.80;0.80;;;8.00;99.90;;;;;;5054697;28;20634;-68
2023/12/24 06:20:12;;;;;;;1.50;0.70;;;8.00;99.90;;;;;;5054443;28;20174;-68
2023/12/24 06:22:38;;;;;;;0.70;0.70;;;8.00;99.90;;;;;;5054386;28;20219;-68
2023/12/24 06:25:04;;;;;;;0.80;0.60;;;8.00;99.90;;;;;;5054181;28;20181;-68
2023/12/24 06:27:30;;;;;;;0.73;0.73;;;7.90;99.90;;;;;;5054289;28;20685;-67
2023/12/24 06:29:56;;;;;;;0.97;0.77;;;8.00;99.90;;;;;;5054212;28;20408;-68
2023/12/24 06:32:22;;;;;;;0.80;0.80;;;7.90;99.90;;;;;;5054235;28;20161;-68
2023/12/24 06:34:47;;;;;;;1.33;0.60;;;7.90;99.90;;;;;;5054142;28;20790;-68
2023/12/24 06:37:13;;;;;;;0.83;0.80;;;7.90;99.90;;;;;;5053669;28;20197;-68
2023/12/24 06:39:38;;;;;;;0.83;0.83;;;7.90;99.90;;;;;;5053977;28;20212;-68
2023/12/24 06:42:04;;;;;;;2.40;0.97;;;7.90;99.90;;;;;;5053974;28;20676;-68
2023/12/24 06:44:29;;;;;;;0.63;0.63;;;7.90;99.90;;;;;;5053943;28;20177;-67
2023/12/24 06:46:55;;;;;;;1.33;0.90;;;7.90;99.90;;;;;;5053938;28;20197;-68
2023/12/24 06:49:20;;;;;;;1.37;0.60;;;8.00;99.90;;;;;;5053910;28;20261;-68
2023/12/24 06:51:46;;;;;;;1.43;0.80;;;8.00;99.90;;;;;;5053751;28;20178;-68
2023/12/24 06:54:11;;;;;;;1.10;0.97;;;8.00;99.90;;;;;;5053751;28;20582;-68
2023/12/24 06:56:37;;;;;;;0.77;0.77;;;8.00;99.90;;;;;;5053560;28;20197;-68
2023/12/24 06:59:03;;;;;;;0.90;0.80;;;8.00;99.90;;;;;;5053663;28;20170;-68
2023/12/24 07:01:28;;;;;;;0.80;0.80;;;8.10;99.90;;;;;;5053577;28;20174;-68
2023/12/24 07:03:54;;;;;;;0.53;0.50;;;8.20;99.90;;;;;;5053614;28;20260;-67
2023/12/24 07:06:20;;;;;;;1.00;0.90;;;8.20;99.90;;;;;;5053458;28;20173;-67
2023/12/24 07:08:45;;;;;;;0.73;0.73;;;8.30;99.90;;;;;;5053370;28;20193;-68
2023/12/24 07:11:10;;;;;;;1.00;0.70;;;8.20;99.90;;;;;;5053458;28;20174;-68
2023/12/24 07:13:37;;;;;;;0.80;0.80;;;8.30;99.90;;;;;;5053406;28;20311;-67
2023/12/24 07:16:02;;;;;;;0.60;0.60;;;8.30;99.90;;;;;;5053276;28;20165;-68
2023/12/24 07:18:28;;;;;;;4.30;0.90;;;8.30;99.90;;;;;;5053102;28;20802;-68
2023/12/24 07:20:54;;;;;;;0.67;0.67;;;8.30;99.90;;;;;;5053238;28;20843;-68
2023/12/24 07:23:19;;;;;;;0.87;0.73;;;8.40;99.90;;;;;;5053230;28;20228;-67
2023/12/24 07:25:45;;;;;;;0.73;0.73;;;8.40;99.90;;;;;;5053429;28;20197;-68
2023/12/24 07:28:10;;;;;;;0.93;0.80;;;8.40;99.90;;;;;;5052978;28;20244;-68
2023/12/24 07:30:36;;;;;;;0.90;0.70;;;8.40;99.90;;;;;;5053050;28;20726;-68
2023/12/24 07:33:01;;;;;;;0.60;0.60;;;8.40;99.90;;;;;;5053036;28;20252;-68
2023/12/24 07:35:27;;;;;;;0.70;0.70;;;8.50;99.90;;;;;;5052931;28;20178;-68
2023/12/24 07:37:52;;;;;;;0.80;0.80;;;8.50;99.90;;;;;;5052741;28;20303;-68
2023/12/24 07:40:18;;;;;;;0.87;0.87;;;8.50;99.90;;;;;;5052855;28;20177;-68
2023/12/24 07:42:44;;;;;;;0.83;0.83;;;8.50;99.90;;;;;;5052810;28;20244;-68
2023/12/24 07:45:10;;;;;;;0.60;0.60;;;8.50;99.90;;;;;;5052804;28;20418;-67
2023/12/24 07:47:35;;;;;;;0.87;0.77;;;8.50;99.90;;;;;;5051856;28;20880;-68
2023/12/24 07:50:01;;;;;;;0.90;0.90;;;8.50;99.90;;;;;;5052942;28;20197;-68
2023/12/24 07:52:26;;;;;;;0.73;0.70;;;8.60;99.90;;;;;;5052454;28;20177;-68
2023/12/24 07:54:52;;;;;;;1.43;0.70;;;8.60;99.90;;;;;;5052669;28;20240;-68
2023/12/24 07:57:17;;;;;;;2.00;0.67;;;8.60;99.90;;;;;;5052392;28;20193;-68
2023/12/24 07:59:43;;;;;;;1.10;1.00;;;8.60;99.90;;;;;;5052581;28;20173;-68
2023/12/24 08:02:08;;;;;;;0.93;0.50;;;8.60;99.90;;;;;;5052505;28;20631;-68
2023/12/24 08:04:34;;;;;;;0.80;0.80;;;8.70;99.90;;;;;;5052716;28;20264;-68
2023/12/24 08:06:59;;;;;;;0.67;0.67;;;8.70;99.90;;;;;;5052387;28;20873;-68
2023/12/24 08:09:26;;;;;;;0.60;0.60;;;8.70;99.90;;;;;;5052449;28;20216;-68
2023/12/24 08:11:51;;;;;;;0.50;0.50;;;8.70;99.90;;;;;;5052396;28;20161;-68
2023/12/24 08:14:17;;;;;;;1.03;0.60;;;8.70;99.90;;;;;;5052316;28;20519;-68
2023/12/24 08:16:42;;;;;;;0.50;0.50;;;8.80;99.90;;;;;;5051964;28;20205;-68
2023/12/24 08:19:08;;;;;;;0.63;0.63;;;8.70;99.90;;;;;;5052313;28;20170;-68
2023/12/24 08:21:34;;;;;;;0.60;0.50;;;8.80;99.90;;;;;;5052164;28;20227;-68
2023/12/24 08:23:59;;;;;;;0.60;0.60;;;8.80;99.90;;;;;;5052180;28;20253;-68
2023/12/24 08:26:26;;;;;;;0.60;0.60;;;8.80;99.90;;;;;;5051958;28;20170;-67
2023/12/24 08:28:51;;;;;;;1.37;0.53;;;8.80;99.90;;;;;;5052040;28;20560;-68
2023/12/24 08:31:17;;;;;;;0.60;0.60;;;8.80;99.90;;;;;;5052582;28;20416;-68
2023/12/24 08:33:43;;;;;;;0.70;0.50;;;8.80;99.90;;;;;;5052079;28;20174;-68
2023/12/24 08:36:10;;;;;;;0.40;0.40;;;8.90;99.90;;;;;;5052053;28;20169;-68
2023/12/24 08:38:35;;;;;;;0.50;0.50;;;8.90;99.90;;;;;;5051871;28;20570;-68
2023/12/24 08:41:01;;;;;;;1.03;0.93;;;8.90;99.90;;;;;;5052100;28;20412;-68
2023/12/24 08:43:27;;;;;;;0.70;0.70;;;9.00;99.90;;;;;;5051959;28;20201;-68
2023/12/24 08:45:52;;;;;;;0.60;0.60;;;9.00;99.90;;;;;;5051951;28;20459;-68
2023/12/24 08:48:18;;;;;;;0.60;0.60;;;9.10;99.90;;;;;;5051656;28;20221;-68
2023/12/24 08:50:44;;;;;;;0.70;0.70;;;9.10;99.90;;;;;;5051876;28;20162;-68
2023/12/24 08:53:10;;;;;;;0.90;0.60;;;9.10;99.90;;;;;;5051556;28;20427;-68
2023/12/24 08:55:35;;;;;;;0.80;0.70;;;9.10;99.90;;;;;;5051848;28;20176;-68
2023/12/24 08:58:01;;;;;;;0.70;0.70;;;9.20;99.90;;;;;;5051566;28;20204;-68
2023/12/24 09:00:26;;;;;;;0.80;0.80;;;9.20;99.90;;;;;;5055349;28;20253;-68
2023/12/24 09:02:52;;;;;;;1.57;1.00;;;9.20;99.90;;;;;;5055835;28;20677;-67
2023/12/24 09:05:18;;;;;;;0.67;0.67;;;9.20;99.90;;;;;;5055812;28;20169;-68
2023/12/24 09:07:44;;;;;;;0.60;0.60;;;9.30;99.90;;;;;;5055527;28;20595;-68
2023/12/24 09:10:10;;;;;;;0.60;0.60;;;9.30;99.90;;;;;;5055798;28;20485;-68
2023/12/24 09:12:35;;;;;;;0.60;0.60;;;9.30;99.90;;;;;;5055784;28;20252;-68
2023/12/24 09:15:01;;;;;;;1.27;0.60;;;9.40;99.90;;;;;;5055768;28;20165;-68
2023/12/24 09:17:27;;;;;;;1.07;0.80;;;9.40;99.90;;;;;;5055304;28;20201;-68
2023/12/24 09:19:52;;;;;;;0.70;0.63;;;9.40;99.90;;;;;;5055794;28;20427;-68
2023/12/24 09:22:18;;;;;;;0.87;0.80;;;9.30;99.90;;;;;;5055597;28;20169;-67
2023/12/24 09:24:43;;;;;;;1.73;0.80;;;9.20;99.90;;;;;;5055509;28;20634;-68
2023/12/24 09:27:09;;;;;;;1.10;0.60;;;9.00;99.90;;;;;;5055056;28;20185;-68
2023/12/24 09:29:34;;;;;;;0.73;0.73;;;8.90;99.90;;;;;;5055405;28;20174;-68
2023/12/24 09:32:00;;;;;;;0.47;0.40;;;8.80;99.90;;;;;;5055450;28;20192;-68
2023/12/24 09:34:25;;;;;;;1.33;0.90;;;8.80;99.90;;;;;;5055259;28;20170;-68
2023/12/24 09:36:51;;;;;;;5.80;0.90;;;8.80;99.90;;;;;;5055038;28;20198;-68
2023/12/24 09:39:16;;;;;;;0.77;0.70;;;8.80;99.90;;;;;;5055192;28;20549;-68
2023/12/24 09:41:42;;;;;;;0.80;0.80;;;8.80;99.90;;;;;;5055122;28;20174;-68
2023/12/24 09:44:08;;;;;;;0.70;0.70;;;8.80;99.90;;;;;;5055138;28;20182;-68
2023/12/24 09:46:33;;;;;;;1.33;0.90;;;8.80;99.90;;;;;;5054861;28;20221;-67
2023/12/24 09:48:59;;;;;;;0.60;0.60;;;8.80;99.90;;;;;;5053604;28;20452;-68
2023/12/24 09:51:29;;;;;;;0.50;0.50;;;8.80;99.90;;;;;;5054890;28;20181;-68
2023/12/24 09:53:55;;;;;;;0.60;0.60;;;8.70;99.90;;;;;;5054660;28;20170;-68
2023/12/24 09:56:21;;;;;;;0.80;0.80;;;8.80;99.90;;;;;;5054815;28;20422;-67
2023/12/24 09:58:47;;;;;;;0.70;0.70;;;8.70;99.90;;;;;;5054788;28;20182;-67
2023/12/24 10:01:13;;;;;;;1.60;0.80;;;8.70;99.90;;;;;;5054751;28;20416;-67
2023/12/24 10:03:38;;;;;;;0.60;0.60;;;8.70;99.90;;;;;;5054702;28;20855;-67
2023/12/24 10:06:07;;;;;;;1.33;0.60;;;8.70;99.90;;;;;;5054710;28;20439;-68
2023/12/24 10:08:33;;;;;;;0.70;0.53;;;8.70;99.90;;;;;;5054439;28;20193;-67
2023/12/24 10:11:23;;;;;;;1.80;0.70;;;8.70;99.90;;;;;;5052882;28;20452;-68
2023/12/24 10:13:59;;;;;;;0.60;0.60;;;8.70;99.90;;;;;;5054644;28;20396;-67
2023/12/24 10:16:25;;;;;;;0.87;0.73;;;8.80;99.90;;;;;;5054266;28;20396;-68
2023/12/24 10:18:50;;;;;;;0.70;0.60;;;8.80;99.90;;;;;;5054395;28;20422;-67
2023/12/24 10:21:18;;;;;;;0.70;0.70;;;8.90;99.90;;;;;;5054373;28;20412;-68
2023/12/24 10:23:43;;;;;;;0.63;0.63;;;8.90;99.90;;;;;;5054372;28;20172;-68
2023/12/24 10:26:11;;;;;;;0.80;0.77;;;9.00;99.90;;;;;;5054508;28;20416;-68
2023/12/24 10:28:48;;;;;;;0.53;0.53;;;9.00;99.90;;;;;;5053968;28;20193;-67
2023/12/24 10:31:14;;;;;;;0.83;0.80;;;9.00;99.90;;;;;;5054240;28;20410;-67
2023/12/24 10:33:40;;;;;;;0.83;0.83;;;9.00;99.90;;;;;;5054129;28;20430;-68
2023/12/24 10:36:07;;;;;;;0.60;0.60;;;9.10;99.90;;;;;;5054098;28;20495;-68
2023/12/24 10:38:34;;;;;;;0.70;0.60;;;9.10;99.90;;;;;;5053957;28;20440;-67
2023/12/24 10:41:00;;;;;;;0.63;0.60;;;9.20;99.90;;;;;;5054073;28;20416;-67
2023/12/24 10:43:26;;;;;;;0.90;0.77;;;9.30;99.90;;;;;;5054388;28;20428;-67
2023/12/24 10:45:51;;;;;;;0.60;0.50;;;9.30;99.90;;;;;;5053952;28;20781;-67
2023/12/24 10:48:17;;;;;;;1.10;1.00;;;9.40;99.90;;;;;;5053700;28;20202;-68
2023/12/24 10:50:43;;;;;;;0.60;0.60;;;9.60;99.90;;;;;;5053954;28;20584;-68
2023/12/24 10:53:09;;;;;;;0.70;0.70;;;9.70;99.90;;;;;;5053787;28;20210;-68
2023/12/24 10:55:36;;;;;;;0.50;0.50;;;9.80;99.90;;;;;;5053845;28;20478;-68
2023/12/24 10:58:25;;;;;;;0.70;0.70;;;9.80;99.90;;;;;;5053560;28;20439;-68
2023/12/24 11:00:51;;;;;;;0.60;0.60;;;9.80;99.90;;;;;;5053804;28;20423;-67
2023/12/24 11:03:47;;;;;;;0.67;0.67;;;9.90;99.90;;;;;;5053608;28;20416;-67
2023/12/24 11:06:35;;;;;;;0.50;0.50;;;9.90;99.90;;;;;;5053597;28;20150;-68
2023/12/24 11:09:05;;;;;;;0.80;0.80;;;10.00;99.90;;;;;;5053453;28;20451;-67
2023/12/24 11:11:55;;;;;;;0.93;0.80;;;10.10;99.90;;;;;;5053484;28;20408;-68
2023/12/24 11:14:45;;;;;;;1.73;0.57;;;10.20;99.90;;;;;;5045667;28;20428;-68
2023/12/24 11:17:33;;;;;;;1.27;0.50;;;10.10;99.90;;;;;;5053008;28;20455;-68
2023/12/24 11:20:25;;;;;;;1.13;0.50;;;10.00;99.90;;;;;;5053255;28;20936;-67
2023/12/24 11:23:06;;;;;;;0.67;0.67;;;10.10;99.90;;;;;;5028703;28;20424;-67
2023/12/24 11:25:44;;;;;;;0.50;0.50;;;10.20;99.90;;;;;;5053027;28;20920;-67
2023/12/24 11:28:12;;;;;;;0.77;0.60;;;10.20;99.90;;;;;;5052677;28;20517;-68
2023/12/24 11:30:50;;;;;;;1.53;0.80;;;10.30;99.90;;;;;;5053061;28;20412;-67
2023/12/24 11:33:41;;;;;;;0.60;0.60;;;10.30;99.90;;;;;;5052944;28;20407;-67
2023/12/24 11:36:11;;;;;;;1.00;0.73;;;10.40;99.90;;;;;;5045866;28;20427;-67
2023/12/24 11:38:36;;;;;;;1.60;0.87;;;10.50;99.90;;;;;;5052716;28;20534;-67
2023/12/24 11:41:06;;;;;;;0.50;0.50;;;10.50;99.90;;;;;;5052861;28;20504;-67
2023/12/24 11:43:49;;;;;;;0.70;0.60;;;10.60;99.90;;;;;;5072631;27;20541;-68
2023/12/24 11:46:15;;;;;;;0.67;0.60;;;10.60;99.90;;;;;;5048223;28;20779;-66
2023/12/24 11:48:40;;;;;;;0.73;0.67;;;10.60;99.90;;;;;;5045978;28;20436;-68
2023/12/24 11:51:10;;;;;;;0.50;0.50;;;10.60;99.90;;;;;;5045911;28;20177;-68
2023/12/24 11:53:37;;;;;;;0.60;0.50;;;10.50;99.90;;;;;;5045505;28;20576;-68
2023/12/24 11:56:11;;;;;;;0.70;0.60;;;10.50;99.90;;;;;;5046124;28;20436;-68
2023/12/24 11:58:58;;;;;;;0.83;0.60;;;10.50;99.90;;;;;;5045405;28;20436;-68
2023/12/24 12:01:31;;;;;;;0.90;0.70;;;10.60;99.90;;;;;;5045518;28;20503;-67
2023/12/24 12:04:02;;;;;;;0.60;0.60;;;10.60;99.90;;;;;;5045664;28;20988;-68
2023/12/24 12:06:29;;;;;;;0.53;0.53;;;10.60;99.90;;;;;;5045226;28;20458;-68
2023/12/24 12:08:54;;;;;;;0.50;0.50;;;10.50;99.90;;;;;;5045584;28;20424;-68
2023/12/24 12:11:20;;;;;;;0.50;0.50;;;10.50;99.90;;;;;;5045507;28;20425;-68
2023/12/24 12:13:46;;;;;;;0.40;0.40;;;10.80;99.90;;;;;;5045507;28;20586;-67
2023/12/24 12:16:11;;;;;;;0.90;0.90;;;11.30;99.90;;;;;;5045354;28;20174;-68
2023/12/24 12:18:37;;;;;;;0.73;0.50;;;11.60;99.90;;;;;;5045125;28;20465;-68
2023/12/24 12:21:03;;;;;;;0.63;0.60;;;12.00;99.90;;;;;;5045288;28;20174;-68
2023/12/24 12:23:28;;;;;;;1.20;1.10;;;11.90;99.90;;;;;;5045235;28;20248;-68
2023/12/24 12:25:54;;;;;;;2.17;0.70;;;11.80;99.90;;;;;;5045302;28;20178;-68
2023/12/24 12:28:19;;;;;;;0.57;0.57;;;11.50;99.90;;;;;;5044901;28;20307;-68
2023/12/24 12:30:45;;;;;;;0.87;0.87;;;11.20;99.90;;;;;;5045118;28;20645;-66
2023/12/24 12:33:11;;;;;;;0.70;0.70;;;11.10;99.90;;;;;;5045148;28;20178;-66
2023/12/24 12:35:37;;;;;;;0.63;0.63;;;10.80;99.90;;;;;;5045063;28;20428;-66
2023/12/24 12:38:03;;;;;;;1.33;0.60;;;10.80;99.90;;;;;;5044746;28;20439;-66
2023/12/24 12:40:29;;;;;;;0.70;0.60;;;10.70;99.90;;;;;;5045083;28;20210;-67
2023/12/24 12:42:55;;;;;;;0.50;0.50;;;10.60;99.90;;;;;;5044861;28;20205;-66
2023/12/24 12:45:21;;;;;;;1.27;0.60;;;10.40;99.90;;;;;;5045024;28;20416;-66
2023/12/24 12:47:46;;;;;;;0.60;0.60;;;10.40;99.90;;;;;;5044530;28;20720;-66
2023/12/24 12:50:12;;;;;;;0.63;0.60;;;10.40;99.90;;;;;;5044880;28;20444;-66
2023/12/24 12:52:37;;;;;;;0.60;0.60;;;10.40;99.90;;;;;;5044436;28;20174;-66